Time;durP1;ratioP1;P1;durP2;ratioP2;P2;SDS_P1;SDS_P2;PMS_P1;PMS_P2;Temp;Humidity;BMP_temperature;BMP_pressure;BME280_temperature;BME280_humidity;BME280_pressure;Samples;Min_cycle;Max_cycle;Signal;HPM_P1;HPM_P2
2022/09/18 00:01:23;;;;;;;5.30;1.80;;;;;;;9.32;100.00;98888.03;4436934;32;35296;-79
2022/09/18 00:04:12;;;;;;;6.30;2.03;;;;;;;9.25;100.00;98874.06;4451354;32;34221;-79
2022/09/18 00:06:59;;;;;;;2.78;1.77;;;;;;;9.43;100.00;98877.59;4438850;32;35532;-81
2022/09/18 00:09:47;;;;;;;3.22;1.58;;;;;;;9.34;100.00;98871.31;4427127;32;35969;-80
2022/09/18 00:12:33;;;;;;;6.80;1.70;;;;;;;9.42;100.00;98874.06;4450482;32;35549;-80
2022/09/18 00:15:19;;;;;;;4.93;1.52;;;;;;;9.78;100.00;98872.09;4450437;32;35202;-81
2022/09/18 00:18:07;;;;;;;8.93;2.05;;;;;;;9.15;100.00;98871.63;4450844;32;34588;-80
2022/09/18 00:20:54;;;;;;;4.40;1.62;;;;;;;9.44;100.00;98866.31;4438114;32;35600;-80
2022/09/18 00:23:41;;;;;;;5.93;1.77;;;;;;;9.55;100.00;98866.78;4449213;32;35504;-80
2022/09/18 00:26:28;;;;;;;3.50;1.80;;;;;;;9.39;100.00;98868.41;4449855;32;34221;-80
2022/09/18 00:29:16;;;;;;;3.45;1.23;;;;;;;9.55;100.00;98868.75;4438690;32;34554;-80
2022/09/18 00:32:02;;;;;;;4.68;1.85;;;;;;;9.41;100.00;98860.69;4451499;32;35049;-81
2022/09/18 00:34:49;;;;;;;4.68;1.40;;;;;;;9.43;100.00;98870.19;4439404;32;34082;-81
2022/09/18 00:37:36;;;;;;;5.00;1.40;;;;;;;9.39;100.00;98869.22;4449253;32;33801;-82
2022/09/18 00:40:23;;;;;;;2.70;1.33;;;;;;;9.37;100.00;98874.22;4438159;32;35583;-82
2022/09/18 00:43:36;;;;;;;7.20;1.60;;;;;;;9.10;100.00;98877.22;4439576;32;34680;-81
2022/09/18 00:46:28;;;;;;;2.35;1.10;;;;;;;9.13;100.00;98865.66;4450722;32;34663;-81
2022/09/18 00:49:24;;;;;;;3.80;1.37;;;;;;;9.05;100.00;98874.66;4436585;32;33705;-83
2022/09/18 00:52:13;;;;;;;6.07;1.42;;;;;;;9.27;100.00;98866.31;4438744;32;34550;-81
2022/09/18 00:55:08;;;;;;;5.43;1.92;;;;;;;9.11;100.00;98863.25;4439288;32;35971;-81
2022/09/18 00:57:55;;;;;;;6.18;1.50;;;;;;;9.24;100.00;98869.69;4439111;32;35722;-80
2022/09/18 01:00:42;;;;;;;9.75;2.78;;;;;;;9.26;100.00;98875.66;4450225;32;34028;-85
2022/09/18 01:03:31;;;;;;;5.53;1.40;;;;;;;9.10;100.00;98863.56;4439220;32;34266;-82
2022/09/18 01:06:33;;;;;;;5.72;1.40;;;;;;;9.14;100.00;98884.50;4449360;32;36044;-84
2022/09/18 01:09:31;;;;;;;3.30;1.15;;;;;;;9.21;100.00;98889.47;4439634;32;34221;-82
2022/09/18 01:12:25;;;;;;;6.28;1.20;;;;;;;9.13;100.00;98888.31;4439670;32;35581;-82
2022/09/18 01:15:30;;;;;;;3.15;1.45;;;;;;;9.11;100.00;98885.12;4453476;32;34744;-83
2022/09/18 01:18:41;;;;;;;4.90;1.20;;;;;;;8.91;100.00;98893.94;4452705;32;35162;-81
2022/09/18 01:21:29;;;;;;;4.22;1.58;;;;;;;8.89;100.00;98888.78;4440610;32;34291;-83
2022/09/18 01:24:44;;;;;;;3.40;1.23;;;;;;;8.79;100.00;98902.72;4453164;32;35059;-83
2022/09/18 01:28:09;;;;;;;6.55;1.50;;;;;;;8.89;100.00;98905.16;4450027;32;35612;-81
2022/09/18 01:31:01;;;;;;;8.10;2.10;;;;;;;8.89;100.00;98909.84;4453741;32;35188;-83
2022/09/18 01:33:52;;;;;;;2.87;1.30;;;;;;;8.84;100.00;98918.97;4440214;32;34708;-81
2022/09/18 01:36:40;;;;;;;3.08;0.98;;;;;;;8.83;100.00;98928.28;4441427;32;34127;-82
2022/09/18 01:39:36;;;;;;;6.10;1.62;;;;;;;8.73;100.00;98934.03;4441258;32;35457;-82
2022/09/18 01:42:25;;;;;;;6.05;1.30;;;;;;;8.94;100.00;98935.09;4442406;32;34959;-81
2022/09/18 01:45:15;;;;;;;6.55;1.17;;;;;;;8.78;100.00;98953.81;4442751;32;34613;-80
2022/09/18 01:48:07;;;;;;;5.15;1.20;;;;;;;8.93;100.00;98949.84;4442934;32;33795;-81
2022/09/18 01:51:03;;;;;;;6.37;1.30;;;;;;;8.63;100.00;98961.62;4442344;32;35579;-83
2022/09/18 01:53:54;;;;;;;3.92;1.90;;;;;;;8.78;100.00;98959.28;4440080;32;35597;-81
2022/09/18 01:56:47;;;;;;;4.53;1.62;;;;;;;8.65;100.00;98959.38;4455155;32;34791;-81
2022/09/18 01:59:41;;;;;;;2.70;1.08;;;;;;;8.80;100.00;98971.84;4431315;32;34119;-83
2022/09/18 02:02:46;;;;;;;5.97;1.40;;;;;;;8.64;100.00;98983.16;4442010;32;35568;-81
2022/09/18 02:05:38;;;;;;;4.47;1.20;;;;;;;8.60;100.00;98984.12;4453075;32;34947;-83
2022/09/18 02:08:37;;;;;;;2.17;0.90;;;;;;;8.57;100.00;98999.19;4441750;32;34694;-84
2022/09/18 02:11:23;;;;;;;5.57;1.00;;;;;;;8.65;100.00;98990.25;4442013;32;34208;-81
2022/09/18 02:14:13;;;;;;;4.30;0.95;;;;;;;8.64;100.00;98991.34;4429169;32;34690;-82
2022/09/18 02:17:12;;;;;;;4.85;0.90;;;;;;;8.75;100.00;98995.41;4442208;32;35512;-82
2022/09/18 02:20:03;;;;;;;4.93;1.00;;;;;;;8.49;100.00;98995.28;4431603;32;35182;-82
2022/09/18 02:23:00;;;;;;;2.45;0.88;;;;;;;8.35;100.00;98997.28;4442132;32;34432;-81
2022/09/18 02:25:52;;;;;;;4.22;1.15;;;;;;;8.49;100.00;99006.22;4440067;32;33912;-83
2022/09/18 02:28:41;;;;;;;2.33;0.80;;;;;;;8.39;100.00;99005.66;4442353;32;34979;-82
2022/09/18 02:31:28;;;;;;;4.35;1.62;;;;;;;8.33;100.00;99013.13;4440893;32;34535;-82
2022/09/18 02:34:16;;;;;;;3.08;0.82;;;;;;;8.40;100.00;99013.56;4452199;32;34065;-82
2022/09/18 02:37:23;;;;;;;2.80;0.90;;;;;;;8.26;100.00;99018.25;4439722;32;34240;-81
2022/09/18 02:40:29;;;;;;;4.62;1.00;;;;;;;8.16;100.00;99019.28;4451289;32;35057;-82
2022/09/18 02:43:27;;;;;;;3.45;0.88;;;;;;;8.38;100.00;99025.87;4440535;32;34631;-82
2022/09/18 02:46:28;;;;;;;3.05;0.85;;;;;;;8.25;100.00;99031.09;4450246;32;35118;-82
2022/09/18 02:49:27;;;;;;;3.47;1.10;;;;;;;8.00;100.00;99037.97;4440159;32;34546;-81
2022/09/18 02:52:18;;;;;;;3.35;0.73;;;;;;;7.95;100.00;99024.44;4450973;32;35083;-82
2022/09/18 02:55:15;;;;;;;2.97;0.90;;;;;;;7.94;100.00;99033.75;4454153;32;34993;-81
2022/09/18 02:58:15;;;;;;;3.97;0.80;;;;;;;8.20;100.00;99033.13;4442267;32;34323;-82
2022/09/18 03:01:04;;;;;;;2.75;0.90;;;;;;;8.13;100.00;99035.47;4442831;32;34570;-82
2022/09/18 03:03:51;;;;;;;1.77;0.80;;;;;;;8.58;100.00;99035.50;4441933;32;34422;-81
2022/09/18 03:06:39;;;;;;;3.85;0.90;;;;;;;8.54;100.00;99036.12;4441570;32;35680;-82
2022/09/18 03:09:26;;;;;;;2.35;1.30;;;;;;;8.33;100.00;99034.97;4450037;32;34696;-82
2022/09/18 03:12:13;;;;;;;1.62;0.70;;;;;;;8.41;100.00;99044.38;4453040;32;34564;-82
2022/09/18 03:15:03;;;;;;;2.83;0.88;;;;;;;8.32;100.00;99044.28;4442053;32;36146;-83
2022/09/18 03:17:50;;;;;;;4.10;1.10;;;;;;;8.33;100.00;99052.16;4453702;32;34801;-81
2022/09/18 03:20:37;;;;;;;1.35;0.60;;;;;;;7.95;100.00;99057.16;4452189;32;34236;-81
2022/09/18 03:23:23;;;;;;;2.97;1.02;;;;;;;8.22;100.00;99055.44;4440240;32;36118;-81
2022/09/18 03:26:10;;;;;;;2.25;0.70;;;;;;;8.23;100.00;99055.16;4439955;32;35043;-82
2022/09/18 03:28:57;;;;;;;1.83;0.80;;;;;;;8.37;100.00;99057.81;4453193;32;34629;-81
2022/09/18 03:31:45;;;;;;;3.67;1.00;;;;;;;8.26;100.00;99062.72;4454569;32;33138;-82
2022/09/18 03:34:32;;;;;;;3.00;0.95;;;;;;;8.32;100.00;99072.38;4452811;32;34589;-82
2022/09/18 03:37:18;;;;;;;4.85;0.90;;;;;;;8.59;100.00;99070.66;4441216;32;35898;-81
2022/09/18 03:40:06;;;;;;;1.85;0.70;;;;;;;8.50;100.00;99076.06;4453638;32;34678;-81
2022/09/18 03:42:52;;;;;;;4.57;0.82;;;;;;;8.42;100.00;99074.09;4451098;32;34346;-81
2022/09/18 03:45:41;;;;;;;2.80;1.02;;;;;;;8.49;100.00;99077.19;4451857;32;34157;-81
2022/09/18 03:48:28;;;;;;;4.20;0.80;;;;;;;8.22;100.00;99075.34;4452779;32;34936;-80
2022/09/18 03:51:17;;;;;;;2.35;0.80;;;;;;;8.22;100.00;99088.19;4452525;32;35041;-82
2022/09/18 03:54:06;;;;;;;3.87;0.93;;;;;;;8.99;100.00;99089.84;4451706;32;34333;-82
2022/09/18 03:56:53;;;;;;;4.25;1.05;;;;;;;8.30;100.00;99087.47;4453427;32;34839;-82
2022/09/18 03:59:40;;;;;;;1.62;0.90;;;;;;;8.46;100.00;99087.94;4451731;32;34497;-82
2022/09/18 04:02:29;;;;;;;4.55;1.00;;;;;;;7.98;100.00;99097.47;4452909;32;34560;-81
2022/09/18 04:05:30;;;;;;;4.45;1.17;;;;;;;8.16;100.00;99103.06;4449010;32;34096;-82
2022/09/18 04:08:29;;;;;;;4.40;0.90;;;;;;;7.99;100.00;99101.78;4442066;32;34614;-82
2022/09/18 04:11:17;;;;;;;3.22;1.37;;;;;;;8.30;100.00;99109.28;4453148;32;34958;-82
2022/09/18 04:14:03;;;;;;;2.97;0.90;;;;;;;8.11;100.00;99107.56;4454457;32;34752;-82
2022/09/18 04:16:51;;;;;;;3.30;1.00;;;;;;;8.24;100.00;99108.59;4450853;32;33302;-81
2022/09/18 04:19:38;;;;;;;3.90;0.98;;;;;;;8.27;100.00;99108.00;4452567;32;34745;-82
2022/09/18 04:22:28;;;;;;;4.12;0.80;;;;;;;8.21;100.00;99111.94;4453127;32;37202;-82
2022/09/18 04:25:15;;;;;;;3.25;0.98;;;;;;;8.19;100.00;99106.00;4439968;32;34518;-82
2022/09/18 04:28:03;;;;;;;3.03;0.80;;;;;;;8.23;100.00;99107.00;4450407;32;34312;-80
2022/09/18 04:30:51;;;;;;;5.05;1.00;;;;;;;8.72;100.00;99109.97;4438362;32;34483;-81
2022/09/18 04:33:38;;;;;;;1.85;0.80;;;;;;;8.50;100.00;99110.78;4439320;32;34936;-80
2022/09/18 04:36:25;;;;;;;2.00;0.73;;;;;;;8.53;100.00;99116.41;4452085;32;34727;-81
2022/09/18 04:39:11;;;;;;;2.00;0.88;;;;;;;8.72;100.00;99104.50;4450821;32;34161;-81
2022/09/18 04:42:00;;;;;;;2.58;1.00;;;;;;;8.70;100.00;99114.94;4449786;32;34636;-82
2022/09/18 04:44:51;;;;;;;2.45;0.90;;;;;;;8.30;100.00;99114.75;4453472;32;36351;-81
2022/09/18 04:47:40;;;;;;;4.87;0.80;;;;;;;8.60;100.00;99118.72;4451688;32;35690;-81
2022/09/18 04:50:27;;;;;;;2.35;0.57;;;;;;;9.22;100.00;99116.03;4451864;32;34421;-81
2022/09/18 04:53:20;;;;;;;3.78;0.65;;;;;;;8.35;100.00;99128.28;4453157;32;34854;-82
2022/09/18 04:56:08;;;;;;;2.03;0.68;;;;;;;8.72;100.00;99129.09;4451272;32;34942;-81
2022/09/18 04:58:54;;;;;;;2.92;0.73;;;;;;;8.94;100.00;99140.00;4450964;32;34195;-81
2022/09/18 05:01:40;;;;;;;2.65;0.68;;;;;;;8.76;100.00;99138.25;4439740;32;33604;-81
2022/09/18 05:04:27;;;;;;;2.50;0.80;;;;;;;8.86;100.00;99140.75;4451822;32;35456;-81
2022/09/18 05:07:15;;;;;;;3.12;0.55;;;;;;;8.64;100.00;99138.81;4451275;32;34932;-82
2022/09/18 05:10:03;;;;;;;3.45;0.70;;;;;;;8.89;100.00;99142.06;4451397;32;34573;-81
2022/09/18 05:12:52;;;;;;;1.80;0.60;;;;;;;8.54;100.00;99141.81;4439971;32;35123;-81
2022/09/18 05:15:51;;;;;;;1.50;0.60;;;;;;;8.81;100.00;99143.59;4447095;32;34625;-82
2022/09/18 05:18:39;;;;;;;1.98;0.40;;;;;;;8.45;100.00;99154.56;4449647;32;34989;-82
2022/09/18 05:21:31;;;;;;;1.52;0.50;;;;;;;8.85;100.00;99144.59;4450143;32;34164;-82
2022/09/18 05:24:19;;;;;;;1.90;0.47;;;;;;;8.78;100.00;99166.88;4450464;32;33811;-81
2022/09/18 05:27:14;;;;;;;1.77;0.77;;;;;;;8.85;100.00;99150.06;4449098;32;34358;-82
2022/09/18 05:30:13;;;;;;;2.20;0.52;;;;;;;8.74;100.00;99163.16;4449238;32;35969;-82
2022/09/18 05:33:06;;;;;;;2.47;0.52;;;;;;;8.87;100.00;99161.47;4448644;32;34073;-81
2022/09/18 05:35:56;;;;;;;1.23;0.47;;;;;;;8.98;100.00;99154.63;4437358;32;33836;-82
2022/09/18 05:38:44;;;;;;;4.30;0.95;;;;;;;8.99;100.00;99158.16;4449612;32;34659;-82
2022/09/18 05:41:33;;;;;;;3.17;0.60;;;;;;;8.81;100.00;99156.47;4451323;32;35035;-82
2022/09/18 05:44:21;;;;;;;5.90;0.75;;;;;;;9.00;100.00;99157.88;4449865;32;34287;-82
2022/09/18 05:47:09;;;;;;;2.05;0.43;;;;;;;9.08;100.00;99155.50;4450429;32;34450;-83
2022/09/18 05:50:09;;;;;;;1.85;0.52;;;;;;;9.24;100.00;99148.50;4439008;32;34532;-81
2022/09/18 05:53:11;;;;;;;2.10;0.60;;;;;;;9.12;100.00;99161.97;4447037;32;34619;-83
2022/09/18 05:56:02;;;;;;;2.25;0.50;;;;;;;9.67;100.00;99148.69;4423623;32;34103;-82
2022/09/18 05:58:50;;;;;;;2.95;0.50;;;;;;;9.60;100.00;99156.56;4449999;32;34793;-81
2022/09/18 06:01:42;;;;;;;2.70;0.77;;;;;;;9.21;100.00;99157.34;4452839;32;35582;-80
2022/09/18 06:04:34;;;;;;;4.65;0.50;;;;;;;9.54;100.00;99167.97;4451179;32;35061;-82
2022/09/18 06:07:27;;;;;;;3.50;0.60;;;;;;;9.36;100.00;99158.84;4446167;32;36103;-82
2022/09/18 06:10:25;;;;;;;1.45;0.50;;;;;;;9.74;100.00;99164.66;4438424;32;34719;-82
2022/09/18 06:13:18;;;;;;;5.03;1.48;;;;;;;9.51;100.00;99171.34;4449494;32;35447;-82
2022/09/18 06:19:07;;;;;;;4.62;0.80;;;;;;;9.57;100.00;99167.34;4449513;32;36380;-81
2022/09/18 06:21:59;;;;;;;0.95;0.40;;;;;;;9.91;100.00;99174.84;4447014;32;34194;-82
2022/09/18 06:24:51;;;;;;;1.08;0.35;;;;;;;10.06;100.00;99177.13;4449117;32;34308;-82
2022/09/18 06:27:52;;;;;;;2.62;0.65;;;;;;;10.15;100.00;99179.88;4449654;32;34511;-82
2022/09/18 06:33:35;;;;;;;1.52;1.02;;;;;;;10.20;100.00;99182.47;4449038;32;35159;-81
2022/09/18 06:36:26;;;;;;;1.35;0.60;;;;;;;10.13;100.00;99191.19;4450109;32;34700;-82
2022/09/18 06:39:27;;;;;;;1.58;0.50;;;;;;;10.23;99.82;99181.03;4447636;32;35964;-82
2022/09/18 06:42:16;;;;;;;1.95;0.52;;;;;;;9.93;100.00;99188.19;4448932;32;35230;-83
2022/09/18 06:45:11;;;;;;;2.85;0.80;;;;;;;10.15;100.00;99185.37;4449517;32;33831;-81
2022/09/18 06:48:06;;;;;;;0.32;0.28;;;;;;;9.75;100.00;99177.22;4448940;32;34006;-80
2022/09/18 06:50:58;;;;;;;1.98;0.50;;;;;;;10.32;99.71;99169.00;4437910;32;34970;-80
2022/09/18 06:53:50;;;;;;;1.73;0.60;;;;;;;10.48;99.58;99176.75;4438983;32;34325;-80
2022/09/18 06:56:48;;;;;;;3.03;0.50;;;;;;;10.52;97.91;99177.72;4449091;32;33870;-81
2022/09/18 06:59:41;;;;;;;;;;;;;;;10.48;95.09;99168.53;4438140;32;34207;-80
2022/09/18 07:02:31;;;;;;;4.25;0.75;;;;;;;10.37;94.43;99183.66;4437992;32;34809;-81
2022/09/18 07:05:20;;;;;;;2.58;0.85;;;;;;;10.86;93.28;99170.63;4450931;32;35391;-82
2022/09/18 07:08:08;;;;;;;1.35;0.30;;;;;;;10.74;93.51;99174.00;4450413;32;34220;-77
2022/09/18 07:11:01;;;;;;;2.22;1.02;;;;;;;11.20;88.08;99178.78;4448694;32;34246;-79
2022/09/18 07:16:55;;;;;;;3.22;0.47;;;;;;;10.93;85.27;99220.25;4437844;32;34566;-81
2022/09/18 07:19:56;;;;;;;1.95;0.40;;;;;;;11.06;86.31;99202.84;4448901;32;34117;-83
2022/09/18 07:22:55;;;;;;;2.42;0.40;;;;;;;11.44;85.15;99213.06;4447209;32;35441;-80
2022/09/18 07:25:46;;;;;;;1.35;0.30;;;;;;;11.22;83.22;99201.19;4438172;32;35004;-83
2022/09/18 07:28:34;;;;;;;3.60;0.40;;;;;;;11.45;83.48;99200.97;4426240;32;35436;-78
2022/09/18 07:34:48;;;;;;;1.80;0.28;;;;;;;11.18;81.69;99219.41;4446285;32;34148;-82
2022/09/18 07:41:14;;;;;;;2.62;0.20;;;;;;;11.21;81.40;99209.75;4447792;32;35271;-81
2022/09/18 07:44:13;;;;;;;4.25;0.85;;;;;;;11.24;79.91;99206.34;4437173;32;34393;-79
2022/09/18 07:47:06;;;;;;;3.90;0.32;;;;;;;11.23;81.29;99234.91;4432673;32;35133;-81
2022/09/18 07:49:57;;;;;;;1.27;0.50;;;;;;;11.24;80.02;99225.53;4425890;32;34515;-79
2022/09/18 07:53:04;;;;;;;3.45;0.43;;;;;;;11.32;79.44;99237.63;4437124;32;34066;-77
2022/09/18 07:56:10;;;;;;;1.83;0.30;;;;;;;11.15;80.46;99233.78;4433001;32;32950;-80
2022/09/18 07:59:26;;;;;;;0.60;0.30;;;;;;;11.62;80.61;99224.81;4422482;32;34826;-80
2022/09/18 08:02:24;;;;;;;2.90;0.47;;;;;;;11.50;80.00;99228.25;4431543;32;33134;-78
2022/09/18 08:05:29;;;;;;;3.62;0.30;;;;;;;11.79;79.60;99257.69;4433134;32;34147;-78
2022/09/18 08:11:42;;;;;;;2.50;0.40;;;;;;;11.68;82.01;99246.25;4437073;32;33167;-77
2022/09/18 08:14:41;;;;;;;2.45;0.62;;;;;;;11.36;82.12;99241.34;4432630;32;34974;-79
2022/09/18 08:17:49;;;;;;;1.70;0.40;;;;;;;11.57;81.85;99253.22;4446931;32;34319;-80
2022/09/18 08:20:41;;;;;;;2.40;0.50;;;;;;;11.74;82.62;99246.09;4430912;32;33004;-82
2022/09/18 08:29:46;;;;;;;4.20;0.43;;;;;;;12.06;81.41;99233.69;4436213;32;35203;-77
2022/09/18 08:32:41;;;;;;;1.27;0.37;;;;;;;12.06;79.56;99242.75;4425010;32;34553;-80
2022/09/18 08:35:42;;;;;;;1.15;0.50;;;;;;;11.90;79.01;99255.44;4446692;32;34096;-79
2022/09/18 08:38:41;;;;;;;1.65;0.20;;;;;;;11.76;79.13;99246.56;4448732;32;34510;-79
2022/09/18 08:42:05;;;;;;;2.40;0.30;;;;;;;12.23;79.35;99244.59;4446349;32;35081;-80
2022/09/18 08:58:31;;;;;;;0.95;0.30;;;;;;;11.97;78.64;99252.16;4447395;32;34217;-79
2022/09/18 09:06:07;;;;;;;1.67;0.37;;;;;;;11.61;79.17;99262.44;4436599;32;34493;-78
2022/09/18 09:12:35;;;;;;;3.17;0.40;;;;;;;11.50;80.09;99269.41;4432973;32;34127;-78
2022/09/18 09:19:33;;;;;;;1.37;0.40;;;;;;;11.68;78.12;99259.97;4437037;32;34932;-80
2022/09/18 09:23:04;;;;;;;2.20;0.55;;;;;;;11.55;79.41;99285.66;4446277;32;35237;-77
2022/09/18 09:29:38;;;;;;;0.82;0.50;;;;;;;12.05;79.26;99265.84;4447071;32;34545;-81
2022/09/18 09:32:51;;;;;;;1.50;0.40;;;;;;;12.04;77.75;99269.75;4437089;32;34487;-79
2022/09/18 09:35:54;;;;;;;1.45;0.30;;;;;;;11.82;78.38;99269.97;4437951;32;34676;-77
2022/09/18 09:42:47;;;;;;;1.55;0.30;;;;;;;11.65;79.71;99268.06;4446683;32;34676;-79
2022/09/18 09:45:58;;;;;;;1.15;0.20;;;;;;;11.87;79.20;99269.81;4441529;32;34927;-80
2022/09/18 09:52:25;;;;;;;1.17;0.30;;;;;;;11.97;78.80;99272.19;4424952;32;37561;-80
2022/09/18 09:55:33;;;;;;;0.77;0.30;;;;;;;11.47;80.82;99281.03;4434017;32;35185;-77
2022/09/18 10:01:49;;;;;;;1.05;0.30;;;;;;;11.52;82.52;99285.53;4438402;32;34488;-75
2022/09/18 10:04:52;;;;;;;0.30;0.20;;;;;;;11.55;82.59;99285.66;4430570;32;33632;-85
2022/09/18 10:17:23;;;;;;;;;;;;;;;11.71;77.87;99305.97;4435341;32;33587;-76
2022/09/18 10:23:38;;;;;;;1.12;0.20;;;;;;;12.34;73.12;99299.97;4447706;32;36195;-78
2022/09/18 10:29:53;;;;;;;;;;;;;;;12.69;71.68;99295.06;4435671;32;33669;-81
2022/09/18 10:32:51;;;;;;;3.00;0.30;;;;;;;12.90;71.81;99297.06;4432498;32;35016;-82
2022/09/18 10:45:36;;;;;;;3.62;0.45;;;;;;;12.77;72.15;99301.66;4411420;32;34115;-75
2022/09/18 10:48:31;;;;;;;;;;;;;;;12.87;72.50;99290.28;4410554;32;33161;-75
2022/09/18 10:51:28;;;;;;;1.37;0.35;;;;;;;12.87;73.19;99293.03;4408589;32;33433;-76
2022/09/18 11:04:16;;;;;;;1.60;0.40;;;;;;;12.94;73.82;99298.78;4408267;32;32146;-77
2022/09/18 11:07:06;;;;;;;3.25;0.45;;;;;;;13.65;70.91;99297.88;4424289;32;34118;-78
2022/09/18 11:13:08;;;;;;;0.90;0.20;;;;;;;13.18;71.54;99308.34;4411698;32;34316;-76
2022/09/18 11:16:22;;;;;;;0.93;0.28;;;;;;;13.04;72.31;99305.84;4413375;32;34055;-79
2022/09/18 11:19:26;;;;;;;2.50;0.50;;;;;;;12.94;72.54;99311.75;4413907;32;34316;-80
2022/09/18 11:22:40;;;;;;;2.20;0.40;;;;;;;12.70;73.22;99315.94;4411163;32;34064;-76
2022/09/18 11:25:36;;;;;;;1.60;0.32;;;;;;;12.85;73.67;99306.31;4413382;32;34770;-77
2022/09/18 11:32:08;;;;;;;3.08;0.52;;;;;;;13.58;72.48;99305.88;4412916;32;34016;-75
2022/09/18 11:35:00;;;;;;;0.88;0.35;;;;;;;13.46;69.60;99290.13;4413735;32;34503;-78
2022/09/18 11:37:51;;;;;;;2.28;0.35;;;;;;;13.50;70.51;99298.53;4412216;32;35984;-77
2022/09/18 11:40:43;;;;;;;2.20;0.30;;;;;;;13.39;69.20;99295.38;4416488;32;34994;-76
2022/09/18 11:43:37;;;;;;;1.75;0.40;;;;;;;13.45;66.12;99299.53;4427640;32;33718;-78
2022/09/18 11:46:33;;;;;;;2.20;0.40;;;;;;;14.18;66.36;99287.88;4427593;32;34550;-77
2022/09/18 11:49:28;;;;;;;3.22;0.47;;;;;;;14.42;65.20;99290.97;4428957;32;34904;-75
2022/09/18 11:52:30;;;;;;;0.30;0.30;;;;;;;13.95;62.71;99292.22;4428050;32;34259;-76
2022/09/18 11:55:42;;;;;;;2.65;0.30;;;;;;;14.29;63.05;99271.69;4431943;32;34064;-77
2022/09/18 11:58:42;;;;;;;1.08;0.30;;;;;;;14.46;60.71;99287.19;4428756;32;35273;-77
2022/09/18 12:01:31;;;;;;;;;;;;;;;14.73;61.12;99291.22;4427220;32;34757;-76
2022/09/18 12:04:39;;;;;;;0.75;0.30;;;;;;;15.02;59.04;99276.31;4436221;32;34549;-77
2022/09/18 12:07:31;;;;;;;4.53;0.57;;;;;;;14.72;58.33;99264.78;4437200;32;33635;-77
2022/09/18 12:10:45;;;;;;;3.28;0.40;;;;;;;14.44;59.04;99266.63;4437011;32;34555;-74
2022/09/18 12:13:31;;;;;;;;;;;;;;;14.88;57.31;99306.22;4427277;32;35961;-75
2022/09/18 12:16:29;;;;;;;;;;;;;;;15.61;56.54;99262.97;4433774;32;35286;-77
2022/09/18 12:19:21;;;;;;;;;;;;;;;16.26;52.46;99265.44;4436155;32;34487;-75
2022/09/18 12:22:19;;;;;;;;;;;;;;;16.29;51.46;99268.28;4434483;32;33127;-76
2022/09/18 12:25:13;;;;;;;;;;;;;;;16.42;50.37;99288.31;4435980;32;36334;-77
2022/09/18 12:28:00;;;;;;;;;;;;;;;15.35;55.89;99250.44;4416660;32;34886;-75
2022/09/18 12:31:03;;;;;;;;;;;;;;;14.85;53.60;99273.81;4430276;32;33995;-80
2022/09/18 12:34:01;;;;;;;;;;;;;;;14.71;54.67;99276.94;4429738;32;233901;-76
2022/09/18 12:37:15;;;;;;;4.22;0.40;;;;;;;15.16;52.45;99264.88;4430101;32;35179;-76
2022/09/18 12:40:33;;;;;;;2.45;0.50;;;;;;;14.70;51.34;99263.53;4415225;32;33341;-79
2022/09/18 12:43:38;;;;;;;1.30;0.40;;;;;;;15.20;47.49;99293.41;4428765;32;33089;-76
2022/09/18 12:46:59;;;;;;;1.67;0.30;;;;;;;15.66;47.26;99252.47;4437403;32;33469;-76
2022/09/18 12:50:05;;;;;;;3.20;0.40;;;;;;;16.36;47.81;99267.63;4428589;32;34559;-75
2022/09/18 12:53:11;;;;;;;;;;;;;;;15.74;46.70;99262.56;4438517;32;35772;-75
2022/09/18 12:56:11;;;;;;;;;;;;;;;15.97;47.00;99259.22;4428682;32;34037;-74
2022/09/18 12:59:15;;;;;;;;;;;;;;;16.75;43.50;99253.91;4415950;32;35717;-74
2022/09/18 13:02:05;;;;;;;;;;;;;;;16.99;43.35;99258.41;4426735;32;35172;-76
2022/09/18 13:05:00;;;;;;;;;;;;;;;16.36;42.68;99257.41;4437609;32;33276;-77
2022/09/18 13:07:46;;;;;;;;;;;;;;;16.88;41.12;99252.66;4428857;32;33791;-72
2022/09/18 13:10:42;;;;;;;;;;;;;;;16.26;42.98;99254.37;4438057;32;35110;-73
2022/09/18 13:14:25;;;;;;;0.57;0.30;;;;;;;15.78;45.53;99259.91;4432799;32;35220;-76
2022/09/18 13:17:23;;;;;;;1.05;0.43;;;;;;;15.33;47.23;99285.06;4419511;32;33748;-74
2022/09/18 13:20:15;;;;;;;2.03;0.40;;;;;;;15.36;48.51;99274.12;4446800;32;34204;-75
2022/09/18 13:23:01;;;;;;;1.20;0.35;;;;;;;15.06;50.56;99282.75;4432002;32;35036;-76
2022/09/18 13:25:50;;;;;;;1.63;0.40;;;;;;;14.63;50.43;99283.44;4432478;32;34920;-77
2022/09/18 13:28:40;;;;;;;1.85;0.25;;;;;;;14.88;50.67;99270.37;4440270;32;34480;-76
2022/09/18 13:31:33;;;;;;;3.28;0.45;;;;;;;14.41;52.06;99279.16;4440007;32;34699;-76
2022/09/18 13:34:21;;;;;;;1.70;0.30;;;;;;;14.35;52.17;99281.34;4448881;32;34757;-75
2022/09/18 13:37:14;;;;;;;2.62;0.43;;;;;;;14.43;52.07;99287.88;4445597;32;34965;-76
2022/09/18 13:40:07;;;;;;;1.42;0.30;;;;;;;14.60;51.66;99297.91;4438604;32;34194;-74
2022/09/18 13:43:02;;;;;;;;;;;;;;;14.37;54.98;99306.59;4427109;32;34002;-76
2022/09/18 13:45:50;;;;;;;;;;;;;;;13.46;66.62;99380.97;4435257;32;35650;-76
2022/09/18 13:48:44;;;;;;;;;;;;;;;11.54;93.76;99388.34;4428451;32;35214;-76
2022/09/18 13:51:36;;;;;;;;;;;;;;;11.69;98.96;99403.50;4419693;32;35103;-77
2022/09/18 13:54:27;;;;;;;1.75;0.50;;;;;;;10.99;94.11;99405.41;4441738;32;35213;-76
2022/09/18 13:57:18;;;;;;;1.80;0.20;;;;;;;10.85;92.73;99404.72;4448322;32;34573;-77
2022/09/18 14:00:31;;;;;;;1.95;0.30;;;;;;;10.27;99.20;99412.03;4446637;32;35037;-76
2022/09/18 14:03:18;;;;;;;0.93;0.30;;;;;;;10.30;100.00;99417.72;4444850;32;33062;-76
2022/09/18 14:06:39;;;;;;;0.85;0.22;;;;;;;10.24;100.00;99397.00;4444853;32;34245;-75
2022/09/18 14:09:51;;;;;;;0.62;0.17;;;;;;;10.42;100.00;99383.47;4371810;32;34567;-76
2022/09/18 14:12:38;;;;;;;1.98;0.30;;;;;;;10.61;100.00;99381.25;4436679;32;35299;-76
2022/09/18 14:15:24;;;;;;;2.97;0.68;;;;;;;11.39;100.00;99372.38;4418874;32;34561;-78
2022/09/18 14:18:13;;;;;;;;;;;;;;;11.45;96.10;99368.34;4432004;32;33513;-77
2022/09/18 14:21:13;;;;;;;;;;;;;;;10.88;98.22;99376.66;4434456;32;34869;-76
2022/09/18 14:24:18;;;;;;;;;;;;;;;11.92;93.83;99376.69;4427068;32;34880;-76
2022/09/18 14:27:26;;;;;;;0.40;0.20;;;;;;;12.68;90.86;99377.88;4426624;32;35706;-77
2022/09/18 14:30:13;;;;;;;1.08;0.30;;;;;;;12.11;91.56;99388.12;4441041;32;34128;-76
2022/09/18 14:33:02;;;;;;;1.30;0.20;;;;;;;11.74;89.85;99410.75;4437590;32;34329;-77
2022/09/18 14:35:56;;;;;;;0.82;0.40;;;;;;;11.47;93.87;99401.75;4429952;32;35321;-76
2022/09/18 14:38:45;;;;;;;2.22;0.40;;;;;;;11.12;95.49;99406.37;4430771;32;34271;-78
2022/09/18 14:41:34;;;;;;;1.00;0.40;;;;;;;11.42;94.41;99386.25;4439012;32;33935;-78
2022/09/18 14:44:23;;;;;;;;;;;;;;;11.19;98.80;99404.78;4439282;32;32937;-76
2022/09/18 14:47:15;;;;;;;;;;;;;;;10.64;100.00;99416.22;4429502;32;35899;-78
2022/09/18 14:50:02;;;;;;;;;;;;;;;10.89;100.00;99395.53;4426584;32;35133;-79
2022/09/18 14:52:49;;;;;;;;;;;;;;;10.64;100.00;99397.06;4429061;32;32558;-80
2022/09/18 14:55:38;;;;;;;;;;;;;;;10.93;100.00;99381.97;4429431;32;34484;-76
2022/09/18 14:58:24;;;;;;;;;;;;;;;10.94;100.00;99378.94;4426779;32;36078;-79
2022/09/18 15:01:15;;;;;;;;;;;;;;;11.61;96.23;99379.59;4439159;32;34446;-82
2022/09/18 15:04:01;;;;;;;;;;;;;;;12.23;92.22;99372.91;4425774;32;34659;-81
2022/09/18 15:06:48;;;;;;;;;;;;;;;12.53;87.36;99371.81;4435991;32;34865;-81
2022/09/18 15:09:34;;;;;;;;;;;;;;;12.73;85.88;99366.72;4425244;32;36458;-82
2022/09/18 15:12:23;;;;;;;0.80;0.40;;;;;;;12.59;84.08;99361.44;4426825;32;33249;-81
2022/09/18 15:15:39;;;;;;;0.60;0.30;;;;;;;13.49;79.71;99360.22;4434999;32;32448;-81
2022/09/18 15:18:28;;;;;;;0.25;0.10;;;;;;;13.28;77.00;99360.22;4425021;32;33956;-80
2022/09/18 15:21:27;;;;;;;0.30;0.30;;;;;;;12.96;74.31;99348.75;4423913;32;34715;-81
2022/09/18 15:24:18;;;;;;;;;;;;;;;12.29;78.91;99372.38;4425897;32;34944;-80
2022/09/18 15:27:05;;;;;;;2.10;0.50;;;;;;;12.65;76.86;99364.81;4424081;32;33716;-83
2022/09/18 15:29:59;;;;;;;1.08;0.25;;;;;;;12.48;77.65;99376.69;4434987;32;34634;-84
2022/09/18 15:32:50;;;;;;;;;;;;;;;12.15;78.98;99369.88;4419226;32;34447;-81
2022/09/18 15:35:36;;;;;;;;;;;;;;;11.67;82.47;99370.09;4428241;32;34793;-81
2022/09/18 15:38:23;;;;;;;;;;;;;;;11.35;85.32;99371.38;4428923;32;33991;-81
2022/09/18 15:41:35;;;;;;;;;;;;;;;11.32;85.90;99378.31;4425689;32;35678;-79